Tappahannock, VA

5:08 PM EDT on July 23, 2017 (GMT -0400)
Tappahannock

Weather History for KXSA - March, 2013

Change the Weather History Date:

Sunday, March 10, 2013

  Actual Average (KOFP) Record (KOFP)
Temperature  
Mean Temperature 44 °F -  
Max Temperature 61 °F 57 °F 80 °F (1964)
Min Temperature 26 °F 32 °F 14 °F (1984)
Degree Days  
Heating Degree Days 22    
Moisture  
Dew Point 26 °F    
Average Humidity 59    
Maximum Humidity 95    
Minimum Humidity 13    
Precipitation  
Precipitation 0.00 in - - ()
Sea Level Pressure  
Sea Level Pressure 30.29 in    
Wind  
Wind Speed 2 mph (ESE)    
Max Wind Speed 14 mph    
Max Gust Speed 16 mph    
Visibility 10 miles    
Events      
Averages and records for this station are not official NWS values.
T = Trace of Precipitation, MM = Missing Value Source: NWS Daily Summary

Daily Weather History Graph

Daily Weather History Graph

Search for Another Location

Airport or City:

Trip Planner

Search our weather history database for the weather conditions in past years. The results will help you decide how hot, cold, wet, or windy it might be!

Date:

Astronomy

Mar. 10, 2013 Rise Set
Actual Time 7:25 AM EDT 7:10 PM EDT
Civil Twilight 6:59 AM EDT 7:36 PM EDT
Nautical Twilight 6:29 AM EDT 8:06 PM EDT
Astronomical Twilight 5:58 AM EDT 8:37 PM EDT
Moon 6:23 AM EDT (3/10) 6:15 PM EDT (3/10)
Length of Visible Light 12h 36m
Length of Day
11h 44m
Waning Crescent, 2% of the Moon is Illuminated
Mar 10
Waning Crescent
Mar 11
New
Mar 19
First Quarter
Mar 27
Full
Apr 3
Last Quarter

Hourly Weather History & Observations

Time (EDT) Temp. Windchill Dew Point Humidity Pressure Visibility Wind Dir Wind Speed Gust Speed Precip Events Conditions
12:15 AM 31.1 °F - 26.4 °F 83% 30.31 in 10.0 mi Calm Calm - N/A   Clear
12:35 AM 31.1 °F - 26.4 °F 83% 30.31 in 10.0 mi Calm Calm - N/A   Clear
12:55 AM 30.9 °F - 25.9 °F 82% 30.31 in 10.0 mi Calm Calm - N/A   Clear
1:15 AM 30.2 °F - 26.4 °F 86% 30.31 in 10.0 mi Calm Calm - N/A   Clear
1:35 AM 29.8 °F - 26.2 °F 86% 30.31 in 10.0 mi Calm Calm - N/A   Clear
1:55 AM 29.3 °F - 26.6 °F 90% 30.30 in 10.0 mi Calm Calm - N/A   Clear
3:15 AM 29.3 °F - 26.6 °F 90% 30.30 in 10.0 mi Calm Calm - N/A   Clear
3:35 AM 29.7 °F - 25.9 °F 86% 30.29 in 10.0 mi Calm Calm - N/A   Clear
3:55 AM 29.1 °F - 25.7 °F 87% 30.29 in 10.0 mi Calm Calm - N/A   Clear
4:15 AM 28.8 °F - 25.3 °F 87% 30.29 in 10.0 mi Calm Calm - N/A   Clear
4:35 AM 27.7 °F - 25.7 °F 92% 30.29 in 10.0 mi Calm Calm - N/A   Clear
4:55 AM 28.2 °F - 25.7 °F 90% 30.29 in 10.0 mi Calm Calm - N/A   Clear
5:15 AM 28.8 °F - 26.6 °F 92% 30.29 in 10.0 mi Calm Calm - N/A   Clear
5:35 AM 27.5 °F - 25.9 °F 94% 30.30 in 10.0 mi Calm Calm - N/A   Clear
5:55 AM 27.1 °F - 25.5 °F 94% 30.30 in 10.0 mi Calm Calm - N/A   Clear
6:15 AM 27.3 °F - 25.7 °F 94% 30.31 in 10.0 mi Calm Calm - N/A   Clear
6:35 AM 26.6 °F - 25.2 °F 94% 30.31 in 10.0 mi Calm Calm - N/A   Clear
6:55 AM 27.0 °F - 25.2 °F 93% 30.31 in 10.0 mi Calm Calm - N/A   Clear
7:15 AM 26.4 °F - 24.8 °F 94% 30.31 in 10.0 mi Calm Calm - N/A   Clear
7:35 AM 27.0 °F - 25.2 °F 93% 30.32 in 10.0 mi Calm Calm - N/A   Clear
8:15 AM 29.3 °F - 27.5 °F 93% 30.32 in 10.0 mi Calm Calm - N/A   Clear
8:35 AM 32.2 °F - 30.2 °F 92% 30.32 in 10.0 mi Calm Calm - N/A   Clear
8:55 AM 35.8 °F - 32.0 °F 86% 30.33 in 10.0 mi Calm Calm - N/A   Clear
9:15 AM 40.1 °F - 31.8 °F 72% 30.33 in 10.0 mi Calm Calm - N/A   Clear
9:35 AM 44.4 °F - 30.9 °F 59% 30.33 in 10.0 mi Calm Calm - N/A   Clear
9:55 AM 48.6 °F - 25.3 °F 40% 30.34 in 10.0 mi SSE 3.5 mph - N/A   Clear
10:15 AM 51.6 °F - 20.1 °F 29% 30.34 in 10.0 mi SE 3.5 mph - N/A   Clear
10:35 AM 53.1 °F - 18.7 °F 26% 30.34 in 10.0 mi ESE 8.1 mph - N/A   Clear
10:55 AM 54.5 °F - 18.7 °F 25% 30.34 in 10.0 mi SSE 5.8 mph - N/A   Clear
11:15 AM 55.2 °F - 16.5 °F 22% 30.34 in 10.0 mi ESE 6.9 mph - N/A   Clear
11:35 AM 56.5 °F - 17.2 °F 22% 30.33 in 10.0 mi SSE 8.1 mph - N/A   Clear
11:55 AM 57.7 °F - 18.0 °F 21% 30.34 in 10.0 mi ESE 8.1 mph - N/A   Clear
12:15 PM 57.6 °F - 15.8 °F 19% 30.34 in 10.0 mi SSE 5.8 mph - N/A   Clear
12:35 PM 58.3 °F - 13.8 °F 17% 30.33 in 10.0 mi Calm Calm - N/A   Clear
12:55 PM 58.8 °F - 11.8 °F 16% 30.33 in 10.0 mi ESE 6.9 mph - N/A   Clear
1:35 PM 60.8 °F - 13.5 °F 16% 30.31 in 10.0 mi East 5.8 mph - N/A   Clear
1:55 PM 60.8 °F - 13.5 °F 16% 30.30 in 10.0 mi Calm Calm - N/A   Clear
2:15 PM 61.2 °F - 14.0 °F 16% 30.29 in 10.0 mi ESE 6.9 mph - N/A   Clear
2:35 PM 61.2 °F - 12.2 °F 15% 30.28 in 10.0 mi East 11.5 mph - N/A   Clear
2:55 PM 60.8 °F - 11.3 °F 14% 30.28 in 10.0 mi East 11.5 mph - N/A   Clear
3:15 PM 61.0 °F - 13.1 °F 15% 30.27 in 10.0 mi ENE 11.5 mph - N/A   Clear
3:35 PM 60.8 °F - 12.7 °F 15% 30.26 in 10.0 mi East 13.8 mph - N/A   Clear
3:55 PM 61.3 °F - 10.4 °F 13% 30.27 in 10.0 mi East 10.4 mph - N/A   Clear
4:15 PM 61.3 °F - 12.7 °F 15% 30.26 in 10.0 mi ENE 10.4 mph 16.1 mph N/A   Clear
4:35 PM 60.8 °F - 15.1 °F 17% 30.26 in 10.0 mi East 10.4 mph - N/A   Clear
4:55 PM 60.4 °F - 14.9 °F 17% 30.27 in 10.0 mi East 8.1 mph - N/A   Clear
5:15 PM 60.4 °F - 18.0 °F 19% 30.26 in 10.0 mi East 10.4 mph - N/A   Clear
5:35 PM 59.7 °F - 18.0 °F 20% 30.26 in 10.0 mi East 8.1 mph - N/A   Clear
5:55 PM 59.0 °F - 19.9 °F 22% 30.26 in 10.0 mi ESE 5.8 mph - N/A   Clear
6:15 PM 57.2 °F - 23.9 °F 28% 30.26 in 10.0 mi East 6.9 mph - N/A   Clear
6:35 PM 55.8 °F - 28.6 °F 35% 30.26 in 10.0 mi ESE 9.2 mph - N/A   Clear
6:55 PM 54.1 °F - 32.2 °F 43% 30.25 in 10.0 mi ESE 8.1 mph - N/A   Clear
7:15 PM 51.8 °F - 33.8 °F 50% 30.25 in 10.0 mi ESE 6.9 mph - N/A   Clear
7:35 PM 50.4 °F - 34.7 °F 55% 30.26 in 10.0 mi ESE 5.8 mph - N/A   Clear
7:55 PM 49.3 °F - 36.1 °F 61% 30.27 in 10.0 mi ESE 5.8 mph - N/A   Clear
8:15 PM 48.0 °F - 36.7 °F 65% 30.27 in 10.0 mi ESE 5.8 mph - N/A   Clear
8:35 PM 46.8 °F - 36.7 °F 68% 30.28 in 10.0 mi ESE 3.5 mph - N/A   Clear
8:55 PM 46.6 °F - 37.4 °F 70% 30.29 in 10.0 mi SE 3.5 mph - N/A   Clear
9:15 PM 45.3 °F - 37.8 °F 75% 30.29 in 10.0 mi Calm Calm - N/A   Clear
9:35 PM 44.6 °F 42.2 °F 37.8 °F 77% 30.29 in 10.0 mi ESE 4.6 mph - N/A   Clear
10:15 PM 44.6 °F 42.2 °F 39.6 °F 82% 30.26 in 10.0 mi ESE 4.6 mph - N/A   Clear
10:35 PM 44.4 °F 42.9 °F 40.1 °F 85% 30.27 in 10.0 mi SE 3.5 mph - N/A   Clear
10:55 PM 43.9 °F 41.3 °F 40.5 °F 88% 30.28 in 10.0 mi SE 4.6 mph - N/A   Clear
11:15 PM 43.2 °F - 40.5 °F 90% 30.29 in 10.0 mi Calm Calm - N/A   Clear
11:35 PM 42.3 °F 40.5 °F 40.3 °F 93% 30.28 in 10.0 mi SSE 3.5 mph - N/A   Clear
11:55 PM 42.4 °F 39.6 °F 40.5 °F 93% 30.28 in 10.0 mi SE 4.6 mph - N/A   Clear
12:15 AM 41.9 °F - 40.3 °F 94% 30.28 in 10.0 mi Calm Calm - N/A   Clear
12:35 AM 41.0 °F 39.0 °F 39.6 °F 95% 30.27 in 7.0 mi ESE 3.5 mph - N/A   Clear